Terminal Aerodrome Forecast
Issued by NWS Charleston, WV

Current Version | Previous Version | Text Only | Print | Product List | Glossary Off
Versions: 1 2 3 4 5 6 7 8 9 10 11 12 13 14 15 16 17 18 19 20 21 22 23 24 25

000
FTUS41 KRLX 291100
TAFBKW
TAF
KBKW 291140Z 2912/3012 00000KT P6SM SKC
     FM292100 22010G15KT P6SM BKN200
     FM300300 18008KT P6SM BKN100
     FM300600 19010G15KT 4SM -SHRA BR OVC015
     FM301100 27009KT 5SM -SHRA BR BKN020=

USA.gov is the U.S. government's official web portal to all federal, state and local government web resources and services.